createdAt,value
2023-04-04T00:05:19.421Z,46.6
2023-04-04T00:11:11.351Z,46.6
2023-04-04T00:16:47.871Z,46.6
2023-04-04T00:22:24.536Z,46.5
2023-04-04T00:28:16.482Z,46.5
2023-04-04T00:34:08.458Z,46.4
2023-04-04T00:39:44.217Z,46.4
2023-04-04T00:45:35.250Z,46.4
2023-04-04T00:51:13.534Z,46.4
2023-04-04T00:57:05.269Z,46.3
2023-04-04T01:02:57.575Z,46.3
2023-04-04T01:08:49.273Z,46.3
2023-04-04T01:14:25.124Z,46.2
2023-04-04T01:20:00.940Z,46.2
2023-04-04T01:25:36.917Z,46.1
2023-04-04T01:31:28.507Z,45.9
2023-04-04T01:37:21.326Z,46.8
2023-04-04T01:43:13.891Z,48.3
2023-04-04T01:48:50.522Z,49.9
2023-04-04T01:54:13.401Z,51.5
2023-04-04T02:00:05.258Z,53
2023-04-04T02:05:57.266Z,54.7
2023-04-04T02:11:32.982Z,56.3
2023-04-04T02:17:09.485Z,57.9
2023-04-04T02:23:03.856Z,59.6
2023-04-04T02:28:24.687Z,61.1
2023-04-04T02:34:16.062Z,61.3
2023-04-04T02:40:07.729Z,61.3
2023-04-04T02:46:01.175Z,61.3
2023-04-04T02:51:57.219Z,61.2
2023-04-04T02:57:49.032Z,61.1
2023-04-04T03:03:26.363Z,61.1
2023-04-04T03:09:17.570Z,61.1
2023-04-04T03:15:09.224Z,61
2023-04-04T03:20:45.992Z,61
2023-04-04T03:26:22.388Z,60.9
2023-04-04T03:32:13.980Z,60.9
2023-04-04T03:38:05.390Z,60.8
2023-04-04T03:43:57.016Z,60.8
2023-04-04T03:49:48.675Z,60.8
2023-04-04T03:55:40.254Z,60.7
2023-04-04T04:01:16.511Z,60.6
2023-04-04T04:07:10.450Z,60.6
2023-04-04T04:13:01.980Z,60.6
2023-04-04T04:18:54.461Z,60.5
2023-04-04T04:24:46.306Z,60.4
2023-04-04T04:30:37.699Z,60.4
2023-04-04T04:36:16.664Z,60.4
2023-04-04T04:42:07.773Z,60.3
2023-04-04T04:47:59.950Z,60.3
2023-04-04T04:53:52.158Z,60.2
2023-04-04T04:59:44.691Z,60.1
2023-04-04T05:05:36.998Z,60.1
2023-04-04T05:11:28.898Z,60
2023-04-04T05:17:22.062Z,59.9
2023-04-04T05:23:13.416Z,59.9
2023-04-04T05:29:04.906Z,59.8
2023-04-04T05:34:56.774Z,59.8
2023-04-04T05:40:49.742Z,59.7
2023-04-04T05:46:27.065Z,59.7
2023-04-04T05:52:18.173Z,59.6
2023-04-04T05:58:10.413Z,59.6
2023-04-04T06:04:03.431Z,59.5
2023-04-04T06:10:00.522Z,59.5
2023-04-04T06:15:54.343Z,59.4
2023-04-04T06:21:46.686Z,59.4
2023-04-04T06:27:38.312Z,59.3
2023-04-04T06:33:30.871Z,59.3
2023-04-04T06:39:22.989Z,59.2
2023-04-04T06:45:14.657Z,59.1
2023-04-04T06:50:51.311Z,59.1
2023-04-04T06:56:43.368Z,59.1
2023-04-04T07:02:36.048Z,59
2023-04-04T07:08:28.857Z,58.9
2023-04-04T07:14:32.218Z,58.9
2023-04-04T07:20:31.268Z,58.8
2023-04-04T07:26:22.987Z,58.8
2023-04-04T07:32:25.734Z,58.8
2023-04-04T07:38:17.237Z,58.7
2023-04-04T07:44:10.462Z,58.6
2023-04-04T07:55:37.466Z,58.5
2023-04-04T08:01:28.828Z,58.5
2023-04-04T08:07:23.217Z,58.4
2023-04-04T08:13:14.905Z,58.4
2023-04-04T08:19:07.179Z,58.3
2023-04-04T08:25:01.047Z,58.3
2023-04-04T08:31:02.378Z,58.2
2023-04-04T08:37:08.389Z,58.2
2023-04-04T08:43:00.171Z,58.1
2023-04-04T08:48:52.870Z,58.1
2023-04-04T08:54:45.055Z,58
2023-04-04T09:00:38.404Z,58
2023-04-04T09:06:45.251Z,57.9
2023-04-04T09:12:39.273Z,57.9
2023-04-04T09:18:43.097Z,57.8
2023-04-04T09:24:35.096Z,57.8
2023-04-04T09:36:12.974Z,57.7
2023-04-04T09:42:06.618Z,57.6
2023-04-04T09:48:19.229Z,57.6
2023-04-04T09:54:15.712Z,57.5
2023-04-04T10:00:40.127Z,57.5
2023-04-04T10:06:44.231Z,57.4
2023-04-04T10:12:49.834Z,57.4
2023-04-04T10:18:42.384Z,57.3
2023-04-04T10:24:46.350Z,57.3
2023-04-04T10:30:39.209Z,57.3
2023-04-04T10:36:44.942Z,57.2
2023-04-04T10:42:36.797Z,57.1
2023-04-04T10:48:28.558Z,57.1
2023-04-04T10:54:30.302Z,57.1
2023-04-04T11:00:22.817Z,57
2023-04-04T11:06:15.816Z,56.9
2023-04-04T11:12:28.299Z,56.9
2023-04-04T11:18:48.768Z,56.9
2023-04-04T11:24:40.348Z,56.8
2023-04-04T11:30:33.057Z,56.8
2023-04-04T11:36:39.111Z,56.7
2023-04-04T11:42:30.587Z,56.6
2023-04-04T11:48:22.373Z,56.6
2023-04-04T11:53:59.437Z,56.6
2023-04-04T12:00:00.474Z,56.5
2023-04-04T12:05:53.538Z,56.4
2023-04-04T12:11:45.179Z,56.4
2023-04-04T12:17:50.813Z,56.3
2023-04-04T12:23:44.916Z,56.3
2023-04-04T12:29:37.000Z,56.3
2023-04-04T12:35:29.071Z,56.2
2023-04-04T12:41:21.444Z,56.1
2023-04-04T12:47:13.421Z,56.1
2023-04-04T12:53:18.682Z,56.1
2023-04-04T12:59:25.801Z,56
2023-04-04T13:05:18.128Z,55.9
2023-04-04T13:11:10.024Z,55.9
2023-04-04T13:16:49.182Z,55.9
2023-04-04T13:22:41.521Z,55.8
2023-04-04T13:28:33.207Z,55.8
2023-04-04T13:34:26.108Z,55.7
2023-04-04T13:40:18.020Z,55.7
2023-04-04T13:46:09.892Z,55.6
2023-04-04T13:52:03.680Z,55.6
2023-04-04T13:58:19.158Z,55.5
2023-04-04T14:04:20.608Z,55.5
2023-04-04T14:10:24.072Z,55.4
2023-04-04T14:16:17.688Z,55.4
2023-04-04T14:22:10.541Z,55.3
2023-04-04T14:28:02.311Z,55.3
2023-04-04T14:33:40.702Z,55.3
2023-04-04T14:39:34.661Z,55.2
2023-04-04T14:45:26.257Z,55.1
2023-04-04T14:51:19.048Z,55.1
2023-04-04T14:57:12.614Z,55.1
2023-04-04T15:03:23.419Z,55
2023-04-04T15:09:17.426Z,54.9
2023-04-04T15:14:54.296Z,54.9
2023-04-04T15:20:31.262Z,54.9
2023-04-04T15:26:23.581Z,54.8
2023-04-04T15:32:17.412Z,54.8
2023-04-04T15:38:12.013Z,54.7
2023-04-04T15:44:09.627Z,54.7
2023-04-04T15:49:46.167Z,54.6
2023-04-04T15:55:38.677Z,54.6
2023-04-04T16:01:31.028Z,54.6
2023-04-04T16:07:23.027Z,54.5
2023-04-04T16:13:17.097Z,54.4
2023-04-04T16:19:10.535Z,54.4
2023-04-04T16:25:02.326Z,54.4
2023-04-04T16:30:54.381Z,54.3
2023-04-04T16:36:32.353Z,54.3
2023-04-04T16:42:13.201Z,54.3
2023-04-04T16:48:10.225Z,54.2
2023-04-04T16:54:05.768Z,54.1
2023-04-04T17:00:01.554Z,54.1
2023-04-04T17:06:01.156Z,54.1
2023-04-04T17:12:01.657Z,54
2023-04-04T17:18:01.699Z,54
2023-04-04T17:23:47.339Z,53.9
2023-04-04T17:29:32.514Z,53.9
2023-04-04T17:35:32.466Z,53.8
2023-04-04T17:41:16.893Z,53.8
2023-04-04T17:47:01.079Z,53.8
2023-04-04T17:52:46.305Z,53.7
2023-04-04T17:58:33.151Z,53.7
2023-04-04T18:04:34.091Z,53.6
2023-04-04T18:10:31.762Z,53.6
2023-04-04T18:16:38.016Z,53.6
2023-04-04T18:22:53.395Z,53.8
2023-04-04T18:28:52.812Z,54.1
2023-04-04T18:34:52.533Z,54.3
2023-04-04T18:40:36.324Z,54.3
2023-04-04T18:46:47.365Z,54.3
2023-04-04T18:52:32.226Z,54.3
2023-04-04T18:58:32.693Z,54.3
2023-04-04T19:04:37.941Z,54.3
2023-04-04T19:10:37.197Z,54.2
2023-04-04T19:16:40.296Z,54.2
2023-04-04T19:22:39.928Z,54.1
2023-04-04T19:28:25.778Z,54.1
2023-04-04T19:34:26.787Z,54.1
2023-04-04T19:40:27.273Z,54.1
2023-04-04T19:46:29.588Z,54
2023-04-04T19:52:30.380Z,54
2023-04-04T19:58:31.386Z,53.9
2023-04-04T20:04:42.831Z,53.9
2023-04-04T20:10:42.730Z,53.9
2023-04-04T20:16:43.333Z,53.8
2023-04-04T20:22:45.077Z,53.8
2023-04-04T20:28:29.312Z,53.8
2023-04-04T20:34:29.341Z,53.7
2023-04-04T20:40:31.801Z,53.7
2023-04-04T20:46:31.684Z,53.6
2023-04-04T20:52:32.254Z,53.6
2023-04-04T20:58:17.271Z,53.5
2023-04-04T21:04:20.466Z,53.5
2023-04-04T21:10:20.464Z,53.4
2023-04-04T21:16:03.039Z,53.4
2023-04-04T21:22:04.477Z,53.4
2023-04-04T21:28:04.203Z,53.3
2023-04-04T21:34:04.016Z,53.3
2023-04-04T21:39:59.796Z,53.3
2023-04-04T21:45:54.112Z,53.2
2023-04-04T21:51:48.352Z,53.1
2023-04-04T21:57:40.965Z,53.1
2023-04-04T22:03:33.875Z,53.1
2023-04-04T22:09:19.054Z,53.1
2023-04-04T22:15:13.620Z,53
2023-04-04T22:21:05.996Z,53
2023-04-04T22:26:57.165Z,52.9
2023-04-04T22:32:47.917Z,52.9
2023-04-04T22:38:40.254Z,52.8
2023-04-04T22:44:32.535Z,52.8
2023-04-04T22:50:09.158Z,52.8
2023-04-04T22:56:02.016Z,52.8
2023-04-04T23:01:53.815Z,52.7
2023-04-04T23:07:45.685Z,52.6
2023-04-04T23:13:22.744Z,52.6
2023-04-04T23:19:14.739Z,52.6
2023-04-04T23:25:06.126Z,52.5
2023-04-04T23:30:58.430Z,52.5
2023-04-04T23:36:49.802Z,52.4
2023-04-04T23:42:41.554Z,52.4
2023-04-04T23:53:54.677Z,52.3
2023-04-04T23:59:46.180Z,52.3
